createdAt,value
2023-04-23T00:02:19.269Z,2.65
2023-04-23T00:04:53.107Z,1.85
2023-04-23T00:07:24.112Z,2.28
2023-04-23T00:09:56.068Z,2.65
2023-04-23T00:12:23.357Z,2.15
2023-04-23T00:14:50.646Z,1.52
2023-04-23T00:17:17.466Z,4.15
2023-04-23T00:19:44.264Z,1.90
2023-04-23T00:22:11.028Z,2.88
2023-04-23T00:24:38.933Z,4.18
2023-04-23T00:27:06.277Z,1.98
2023-04-23T00:29:33.479Z,3.55
2023-04-23T00:32:00.352Z,3.33
2023-04-23T00:34:27.237Z,2.97
2023-04-23T00:36:54.053Z,1.52
2023-04-23T00:39:22.672Z,2.50
2023-04-23T00:41:49.856Z,4.05
2023-04-23T00:44:16.751Z,5.15
2023-04-23T00:46:44.009Z,2.20
2023-04-23T00:49:11.391Z,2.38
2023-04-23T00:51:38.161Z,2.55
2023-04-23T00:54:05.047Z,2.20
2023-04-23T00:56:32.126Z,2.92
2023-04-23T00:58:59.031Z,2.35
2023-04-23T01:01:25.986Z,3.10
2023-04-23T01:03:54.186Z,4.43
2023-04-23T01:06:21.514Z,3.58
2023-04-23T01:08:48.316Z,3.08
2023-04-23T01:11:15.797Z,4.43
2023-04-23T01:13:43.401Z,3.78
2023-04-23T01:16:11.433Z,4.47
2023-04-23T01:18:40.828Z,3.03
2023-04-23T01:21:09.869Z,5.13
2023-04-23T01:23:36.636Z,3.47
2023-04-23T01:26:03.578Z,4.10
2023-04-23T01:28:30.669Z,2.92
2023-04-23T01:30:59.164Z,3.20
2023-04-23T01:33:26.699Z,5.65
2023-04-23T01:35:55.082Z,2.80
2023-04-23T01:38:23.616Z,2.80
2023-04-23T01:40:50.388Z,6.18
2023-04-23T01:43:17.808Z,3.05
2023-04-23T01:45:44.703Z,4.10
2023-04-23T01:48:11.511Z,5.30
2023-04-23T01:50:38.985Z,4.30
2023-04-23T01:53:05.976Z,3.67
2023-04-23T01:55:36.765Z,5.03
2023-04-23T01:58:03.732Z,7.13
2023-04-23T02:00:30.907Z,6.28
2023-04-23T02:02:57.767Z,5.82
2023-04-23T02:05:28.768Z,7.78
2023-04-23T02:07:56.120Z,6.50
2023-04-23T02:10:22.916Z,6.15
2023-04-23T02:12:49.669Z,7.45
2023-04-23T02:15:16.540Z,7.47
2023-04-23T02:17:43.648Z,6.72
2023-04-23T02:20:11.993Z,8.93
2023-04-23T02:22:41.200Z,9.07
2023-04-23T02:25:08.915Z,9.05
2023-04-23T02:27:35.972Z,8.63
2023-04-23T02:30:08.382Z,9.45
2023-04-23T02:32:37.154Z,10.02
2023-04-23T02:35:06.353Z,9.85
2023-04-23T02:37:33.581Z,10.95
2023-04-23T02:40:00.341Z,11.23
2023-04-23T02:42:27.185Z,10.40
2023-04-23T02:44:54.005Z,11.68
2023-04-23T02:47:20.785Z,12.05
2023-04-23T02:49:47.532Z,13.70
2023-04-23T02:52:14.344Z,12.32
2023-04-23T02:54:41.214Z,13.40
2023-04-23T02:57:08.449Z,13.63
2023-04-23T02:59:35.544Z,12.85
2023-04-23T03:02:02.389Z,13.93
2023-04-23T03:04:29.217Z,13.73
2023-04-23T03:06:56.539Z,13.25
2023-04-23T03:09:23.327Z,12.88
2023-04-23T03:11:50.097Z,14.82
2023-04-23T03:14:16.905Z,17.55
2023-04-23T03:16:43.695Z,14.68
2023-04-23T03:19:10.705Z,14.70
2023-04-23T03:21:37.492Z,14.27
2023-04-23T03:24:04.393Z,16.80
2023-04-23T03:26:31.307Z,15.27
2023-04-23T03:28:58.102Z,14.60
2023-04-23T03:31:24.945Z,15.40
2023-04-23T03:33:51.834Z,14.73
2023-04-23T03:36:18.612Z,16.42
2023-04-23T03:38:45.354Z,14.93
2023-04-23T03:41:12.152Z,14.50
2023-04-23T03:43:38.951Z,15.07
2023-04-23T03:46:06.490Z,14.50
2023-04-23T03:48:33.346Z,16.15
2023-04-23T03:51:00.197Z,15.65
2023-04-23T03:53:27.061Z,15.30
2023-04-23T03:55:53.831Z,16.08
2023-04-23T03:58:20.695Z,15.27
2023-04-23T04:00:47.476Z,15.60
2023-04-23T04:03:14.423Z,16.05
2023-04-23T04:05:41.551Z,15.15
2023-04-23T04:08:08.689Z,15.35
2023-04-23T04:10:35.564Z,15.30
2023-04-23T04:13:02.398Z,14.52
2023-04-23T04:15:29.209Z,16.08
2023-04-23T04:17:56.052Z,17.33
2023-04-23T04:20:22.955Z,15.75
2023-04-23T04:22:49.859Z,17.40
2023-04-23T04:25:16.603Z,15.15
2023-04-23T04:27:43.722Z,17.40
2023-04-23T04:30:10.962Z,21.40
2023-04-23T04:32:38.751Z,22.90
2023-04-23T04:35:09.189Z,24.15
2023-04-23T04:37:36.296Z,24.83
2023-04-23T04:40:03.696Z,22.98
2023-04-23T04:42:30.988Z,25.75
2023-04-23T04:44:59.488Z,24.48
2023-04-23T04:47:26.449Z,24.75
2023-04-23T04:49:57.006Z,23.13
2023-04-23T04:52:24.601Z,26.70
2023-04-23T04:54:51.448Z,25.30
2023-04-23T04:57:19.943Z,28.17
2023-04-23T04:59:46.799Z,29.98
2023-04-23T05:02:14.088Z,25.95
2023-04-23T05:04:41.206Z,26.48
2023-04-23T05:07:08.318Z,27.20
2023-04-23T05:09:35.172Z,26.58
2023-04-23T05:12:02.060Z,24.33
2023-04-23T05:14:28.941Z,26.05
2023-04-23T05:16:55.958Z,25.00
2023-04-23T05:19:23.581Z,25.75
2023-04-23T05:21:50.469Z,25.60
2023-04-23T05:24:17.294Z,27.77
2023-04-23T05:26:44.182Z,24.75
2023-04-23T05:29:12.953Z,25.17
2023-04-23T05:31:39.806Z,22.60
2023-04-23T05:34:06.622Z,24.88
2023-04-23T05:36:33.466Z,26.65
2023-04-23T05:39:00.571Z,28.20
2023-04-23T05:41:27.501Z,28.17
2023-04-23T05:43:54.253Z,24.52
2023-04-23T05:46:21.071Z,24.85
2023-04-23T05:48:47.874Z,26.98
2023-04-23T05:51:14.631Z,26.05
2023-04-23T05:53:41.440Z,23.15
2023-04-23T05:56:08.218Z,26.33
2023-04-23T05:58:35.160Z,24.98
2023-04-23T06:01:02.951Z,24.40
2023-04-23T06:03:30.365Z,30.75
2023-04-23T06:05:57.351Z,25.10
2023-04-23T06:08:25.336Z,24.10
2023-04-23T06:10:52.249Z,26.63
2023-04-23T06:13:19.029Z,25.95
2023-04-23T06:15:45.898Z,27.00
2023-04-23T06:18:13.102Z,24.02
2023-04-23T06:20:39.956Z,25.23
2023-04-23T06:23:06.749Z,22.17
2023-04-23T06:25:33.516Z,22.75
2023-04-23T06:28:00.322Z,25.25
2023-04-23T06:30:27.242Z,27.02
2023-04-23T06:32:54.097Z,23.48
2023-04-23T06:35:20.917Z,24.40
2023-04-23T06:37:47.767Z,25.52
2023-04-23T06:40:15.078Z,24.80
2023-04-23T06:42:41.818Z,22.73
2023-04-23T06:45:09.189Z,24.58
2023-04-23T06:47:36.008Z,28.38
2023-04-23T06:50:02.884Z,26.58
2023-04-23T06:52:29.768Z,24.58
2023-04-23T06:54:56.513Z,26.60
2023-04-23T06:57:23.290Z,25.17
2023-04-23T06:59:50.204Z,25.73
2023-04-23T07:02:17.088Z,25.95
2023-04-23T07:04:44.539Z,24.90
2023-04-23T07:07:12.011Z,24.85
2023-04-23T07:09:38.792Z,26.20
2023-04-23T07:12:06.486Z,25.80
2023-04-23T07:14:33.412Z,26.10
2023-04-23T07:17:00.513Z,28.10
2023-04-23T07:19:27.405Z,25.98
2023-04-23T07:21:54.234Z,26.67
2023-04-23T07:24:21.037Z,24.75
2023-04-23T07:26:47.854Z,28.10
2023-04-23T07:29:15.353Z,27.98
2023-04-23T07:31:42.233Z,27.08
2023-04-23T07:34:09.822Z,31.00
2023-04-23T07:36:37.203Z,24.77
2023-04-23T07:39:05.274Z,27.45
2023-04-23T07:41:32.829Z,25.30
2023-04-23T07:43:59.685Z,26.45
2023-04-23T07:46:26.490Z,24.98
2023-04-23T07:48:53.478Z,26.35
2023-04-23T07:51:22.327Z,24.52
2023-04-23T07:53:51.132Z,25.98
2023-04-23T07:56:17.939Z,26.98
2023-04-23T07:58:44.729Z,25.40
2023-04-23T08:01:11.530Z,27.60
2023-04-23T08:03:38.457Z,28.38
2023-04-23T08:06:05.610Z,26.92
2023-04-23T08:08:32.407Z,26.13
2023-04-23T08:10:59.309Z,26.13
2023-04-23T08:13:26.108Z,24.85
2023-04-23T08:15:52.954Z,23.38
2023-04-23T08:18:19.757Z,24.92
2023-04-23T08:20:46.555Z,21.63
2023-04-23T08:23:13.396Z,23.48
2023-04-23T08:25:40.359Z,21.08
2023-04-23T08:28:08.374Z,23.95
2023-04-23T08:30:35.184Z,23.85
2023-04-23T08:33:02.236Z,22.73
2023-04-23T08:35:29.094Z,23.23
2023-04-23T08:37:56.197Z,23.48
2023-04-23T08:40:23.084Z,24.73
2023-04-23T08:43:03.170Z,21.60
2023-04-23T08:45:30.899Z,20.55
2023-04-23T08:48:02.189Z,20.88
2023-04-23T08:50:30.983Z,19.90
2023-04-23T08:52:58.887Z,19.92
2023-04-23T08:55:26.144Z,18.50
2023-04-23T08:57:53.190Z,20.95
2023-04-23T09:00:23.077Z,17.80
2023-04-23T09:02:50.613Z,18.50
2023-04-23T09:05:17.864Z,18.33
2023-04-23T09:07:44.968Z,21.35
2023-04-23T09:10:18.256Z,19.70
2023-04-23T09:12:46.702Z,18.55
2023-04-23T09:15:13.662Z,19.83
2023-04-23T09:17:43.901Z,17.27
2023-04-23T09:20:12.699Z,16.95
2023-04-23T09:22:55.203Z,17.02
2023-04-23T09:25:23.889Z,14.80
2023-04-23T09:27:52.729Z,15.13
2023-04-23T09:30:20.174Z,14.73
2023-04-23T09:32:47.597Z,14.45
2023-04-23T09:35:16.608Z,14.63
2023-04-23T09:37:49.509Z,14.40
2023-04-23T09:40:19.906Z,14.38
2023-04-23T09:42:55.747Z,13.18
2023-04-23T09:45:25.033Z,12.98
2023-04-23T09:47:57.881Z,12.73
2023-04-23T09:50:37.037Z,13.43
2023-04-23T09:53:05.526Z,12.38
2023-04-23T09:55:38.870Z,13.43
2023-04-23T09:58:11.482Z,13.83
2023-04-23T10:00:40.012Z,13.60
2023-04-23T10:03:09.489Z,13.48
2023-04-23T10:08:13.794Z,12.98
2023-04-23T10:10:56.790Z,12.07
2023-04-23T10:13:28.459Z,11.93
2023-04-23T10:15:59.094Z,10.27
2023-04-23T10:18:33.642Z,10.93
2023-04-23T10:21:03.264Z,9.55
2023-04-23T10:23:30.914Z,10.18
2023-04-23T10:25:59.503Z,10.65
2023-04-23T10:28:31.874Z,11.23
2023-04-23T10:30:59.781Z,10.98
2023-04-23T10:33:31.907Z,10.55
2023-04-23T10:36:00.894Z,12.07
2023-04-23T10:38:28.350Z,8.57
2023-04-23T10:40:58.723Z,8.88
2023-04-23T10:43:25.708Z,10.15
2023-04-23T10:45:53.741Z,10.55
2023-04-23T10:48:21.434Z,9.20
2023-04-23T10:51:14.624Z,10.70
2023-04-23T10:53:46.461Z,9.27
2023-04-23T10:56:13.443Z,9.73
2023-04-23T10:58:51.261Z,6.65
2023-04-23T11:01:18.969Z,8.38
2023-04-23T11:03:47.650Z,6.40
2023-04-23T11:06:48.677Z,11.88
2023-04-23T11:09:42.572Z,7.78
2023-04-23T11:12:34.864Z,7.90
2023-04-23T11:15:12.710Z,6.90
2023-04-23T11:17:39.393Z,7.50
2023-04-23T11:20:14.330Z,7.53
2023-04-23T11:22:45.860Z,7.05
2023-04-23T11:25:24.763Z,6.40
2023-04-23T11:27:53.944Z,6.05
2023-04-23T11:30:26.390Z,8.27
2023-04-23T11:32:55.340Z,5.93
2023-04-23T11:35:28.417Z,5.55
2023-04-23T11:37:56.340Z,5.35
2023-04-23T11:40:24.294Z,10.27
2023-04-23T11:42:54.786Z,6.75
2023-04-23T11:45:27.968Z,5.22
2023-04-23T11:47:57.152Z,4.68
2023-04-23T11:50:33.543Z,4.85
2023-04-23T11:53:10.374Z,5.18
2023-04-23T11:55:38.284Z,5.30
2023-04-23T11:58:05.728Z,4.65
2023-04-23T12:00:32.521Z,5.10
2023-04-23T12:03:02.362Z,5.13
2023-04-23T12:05:40.130Z,7.80
2023-04-23T12:08:18.929Z,6.38
2023-04-23T12:10:51.070Z,4.18
2023-04-23T12:13:22.253Z,5.55
2023-04-23T12:15:57.773Z,6.68
2023-04-23T12:18:29.129Z,4.07
2023-04-23T12:21:09.523Z,5.32
2023-04-23T12:23:38.237Z,4.93
2023-04-23T12:26:11.377Z,4.10
2023-04-23T12:28:55.808Z,3.63
2023-04-23T12:31:23.837Z,4.53
2023-04-23T12:34:04.718Z,4.95
2023-04-23T12:36:32.242Z,4.45
2023-04-23T12:39:24.923Z,4.50
2023-04-23T12:42:13.010Z,5.93
2023-04-23T12:44:40.249Z,5.10
2023-04-23T12:47:09.564Z,4.35
2023-04-23T12:49:39.159Z,14.75
2023-04-23T12:52:07.555Z,2.75
2023-04-23T12:54:37.370Z,3.22
2023-04-23T12:57:06.856Z,1.75
2023-04-23T12:59:34.127Z,2.00
2023-04-23T13:02:02.286Z,3.92
2023-04-23T13:04:32.880Z,3.05
2023-04-23T13:06:59.687Z,2.13
2023-04-23T13:09:28.278Z,3.40
2023-04-23T13:11:55.753Z,2.40
2023-04-23T13:14:22.584Z,4.60
2023-04-23T13:16:50.056Z,4.30
2023-04-23T13:19:17.207Z,2.55
2023-04-23T13:21:45.059Z,2.67
2023-04-23T13:24:11.989Z,1.42
2023-04-23T13:26:38.936Z,2.67
2023-04-23T13:29:06.062Z,1.17
2023-04-23T13:31:34.107Z,1.08
2023-04-23T13:34:03.604Z,1.73
2023-04-23T13:36:30.650Z,0.70
2023-04-23T13:38:57.493Z,1.35
2023-04-23T13:41:24.313Z,0.65
2023-04-23T13:43:51.176Z,1.70
2023-04-23T13:46:19.555Z,1.38
2023-04-23T13:48:46.398Z,0.98
2023-04-23T13:51:26.455Z,6.07
2023-04-23T13:54:00.089Z,0.70
2023-04-23T13:56:27.560Z,2.20
2023-04-23T13:59:02.262Z,1.60
2023-04-23T14:01:31.992Z,1.50
2023-04-23T14:03:58.919Z,0.88
2023-04-23T14:06:25.753Z,1.08
2023-04-23T14:08:52.578Z,1.25
2023-04-23T14:11:19.374Z,1.75
2023-04-23T14:13:46.112Z,2.58
2023-04-23T14:16:13.201Z,3.92
2023-04-23T14:18:39.976Z,2.22
2023-04-23T14:21:07.897Z,1.27
2023-04-23T14:23:49.292Z,1.63
2023-04-23T14:26:47.813Z,1.10
2023-04-23T14:29:49.063Z,1.70
2023-04-23T14:32:16.008Z,1.35
2023-04-23T14:34:44.402Z,4.05
2023-04-23T14:37:11.298Z,1.48
2023-04-23T14:39:38.123Z,1.70
2023-04-23T14:42:05.175Z,0.63
2023-04-23T14:44:31.970Z,1.15
2023-04-23T14:46:59.094Z,2.47
2023-04-23T14:49:25.953Z,1.42
2023-04-23T14:51:57.951Z,3.58
2023-04-23T14:54:24.898Z,0.82
2023-04-23T14:56:52.133Z,3.28
2023-04-23T14:59:19.219Z,1.60
2023-04-23T15:01:46.105Z,1.20
2023-04-23T15:04:16.193Z,3.30
2023-04-23T15:06:43.001Z,0.90
2023-04-23T15:09:09.805Z,0.60
2023-04-23T15:11:38.602Z,1.00
2023-04-23T15:14:19.630Z,4.47
2023-04-23T15:16:49.307Z,1.00
2023-04-23T15:19:18.825Z,3.88
2023-04-23T15:21:46.618Z,0.52
2023-04-23T15:24:13.704Z,0.80
2023-04-23T15:26:40.888Z,1.85
2023-04-23T15:29:10.558Z,2.00
2023-04-23T15:31:38.450Z,1.23
2023-04-23T15:34:08.164Z,1.10
2023-04-23T15:36:38.107Z,1.15
2023-04-23T15:39:06.575Z,1.00
2023-04-23T15:41:36.632Z,0.75
2023-04-23T15:44:04.685Z,0.40
2023-04-23T15:46:31.505Z,0.80
2023-04-23T15:48:58.295Z,3.78
2023-04-23T15:51:25.153Z,0.90
2023-04-23T15:53:51.911Z,0.55
2023-04-23T15:56:18.648Z,0.70
2023-04-23T15:58:45.439Z,1.15
2023-04-23T16:01:12.339Z,1.13
2023-04-23T16:03:39.298Z,1.15
2023-04-23T16:06:06.488Z,0.73
2023-04-23T16:08:33.342Z,1.25
2023-04-23T16:11:00.257Z,0.80
2023-04-23T16:13:29.078Z,1.33
2023-04-23T16:15:56.099Z,1.00
2023-04-23T16:18:22.962Z,0.70
2023-04-23T16:20:49.728Z,0.55
2023-04-23T16:23:16.487Z,0.82
2023-04-23T16:25:44.081Z,1.15
2023-04-23T16:28:13.154Z,2.22
2023-04-23T16:30:40.125Z,1.80
2023-04-23T16:33:06.975Z,1.17
2023-04-23T16:35:33.872Z,0.63
2023-04-23T16:38:00.722Z,1.67
2023-04-23T16:40:28.658Z,1.33
2023-04-23T16:42:55.621Z,0.50
2023-04-23T16:45:23.174Z,2.13
2023-04-23T16:47:50.808Z,0.70
2023-04-23T16:50:17.659Z,0.70
2023-04-23T16:52:44.532Z,1.17
2023-04-23T16:55:11.382Z,1.80
2023-04-23T16:57:38.356Z,1.65
2023-04-23T17:00:06.130Z,1.27
2023-04-23T17:02:34.328Z,2.03
2023-04-23T17:05:01.944Z,1.98
2023-04-23T17:07:29.056Z,1.85
2023-04-23T17:09:55.921Z,0.73
2023-04-23T17:12:22.788Z,2.30
2023-04-23T17:14:49.641Z,1.10
2023-04-23T17:17:16.584Z,0.90
2023-04-23T17:19:43.467Z,1.67
2023-04-23T17:22:10.666Z,1.00
2023-04-23T17:24:39.088Z,1.40
2023-04-23T17:27:06.290Z,1.10
2023-04-23T17:29:33.099Z,1.48
2023-04-23T17:32:01.042Z,1.92
2023-04-23T17:34:27.962Z,3.50
2023-04-23T17:36:54.794Z,1.63
2023-04-23T17:39:23.555Z,1.70
2023-04-23T17:41:50.394Z,2.55
2023-04-23T17:44:17.226Z,1.33
2023-04-23T17:46:44.026Z,4.72
2023-04-23T17:49:10.824Z,1.83
2023-04-23T17:51:37.845Z,3.30
2023-04-23T17:54:05.252Z,1.00
2023-04-23T17:56:32.165Z,1.50
2023-04-23T17:58:58.920Z,2.63
2023-04-23T18:01:25.901Z,1.65
2023-04-23T18:03:53.405Z,3.50
2023-04-23T18:06:20.504Z,1.27
2023-04-23T18:08:47.306Z,1.10
2023-04-23T18:11:14.121Z,2.47
2023-04-23T18:13:40.966Z,2.05
2023-04-23T18:16:07.715Z,1.85
2023-04-23T18:18:34.520Z,5.07
2023-04-23T18:21:01.937Z,2.60
2023-04-23T18:23:29.295Z,2.72
2023-04-23T18:25:56.563Z,1.17
2023-04-23T18:28:23.338Z,2.17
2023-04-23T18:30:50.130Z,1.48
2023-04-23T18:33:36.618Z,2.55
2023-04-23T18:36:29.201Z,4.10
2023-04-23T18:38:56.426Z,1.50
2023-04-23T18:41:23.532Z,2.05
2023-04-23T18:43:50.392Z,2.15
2023-04-23T18:46:17.635Z,2.65
2023-04-23T18:49:06.460Z,1.92
2023-04-23T18:51:44.792Z,2.38
2023-04-23T18:54:15.006Z,2.13
2023-04-23T18:56:42.012Z,3.15
2023-04-23T18:59:08.783Z,3.25
2023-04-23T19:01:36.105Z,3.20
2023-04-23T19:04:03.414Z,5.30
2023-04-23T19:06:31.135Z,9.07
2023-04-23T19:08:58.397Z,9.88
2023-04-23T19:11:27.029Z,9.75
2023-04-23T19:13:53.811Z,13.10
2023-04-23T19:16:20.733Z,13.23
2023-04-23T19:18:47.838Z,10.20
2023-04-23T19:21:14.689Z,9.35
2023-04-23T19:23:41.469Z,4.22
2023-04-23T19:26:08.252Z,5.72
2023-04-23T19:28:35.144Z,2.58
2023-04-23T19:31:03.423Z,1.63
2023-04-23T19:33:30.259Z,2.38
2023-04-23T19:35:57.054Z,1.60
2023-04-23T19:38:23.841Z,2.55
2023-04-23T19:40:51.157Z,1.23
2023-04-23T19:43:18.842Z,1.30
2023-04-23T19:45:46.498Z,1.27
2023-04-23T19:48:13.272Z,2.58
2023-04-23T19:50:40.440Z,6.88
2023-04-23T19:53:07.212Z,2.70
2023-04-23T19:55:34.059Z,2.45
2023-04-23T19:58:01.164Z,1.70
2023-04-23T20:00:30.578Z,1.63
2023-04-23T20:02:58.067Z,1.75
2023-04-23T20:05:25.603Z,1.58
2023-04-23T20:07:52.534Z,2.17
2023-04-23T20:10:19.679Z,2.30
2023-04-23T20:12:46.510Z,2.08
2023-04-23T20:15:13.659Z,1.63
2023-04-23T20:17:40.798Z,2.15
2023-04-23T20:20:09.349Z,1.88
2023-04-23T20:22:36.094Z,4.10
2023-04-23T20:25:03.414Z,2.25
2023-04-23T20:27:31.016Z,1.63
2023-04-23T20:29:57.837Z,1.98
2023-04-23T20:32:24.674Z,1.63
2023-04-23T20:34:52.542Z,2.88
2023-04-23T20:37:22.001Z,2.13
2023-04-23T20:39:49.709Z,2.13
2023-04-23T20:42:16.547Z,6.20
2023-04-23T20:44:45.451Z,1.13
2023-04-23T20:47:13.107Z,1.50
2023-04-23T20:49:40.371Z,3.75
2023-04-23T20:52:07.531Z,2.50
2023-04-23T20:54:34.846Z,2.50
2023-04-23T20:57:02.876Z,1.60
2023-04-23T20:59:29.936Z,1.75
2023-04-23T21:01:58.787Z,6.28
2023-04-23T21:04:28.253Z,1.67
2023-04-23T21:06:55.188Z,4.20
2023-04-23T21:09:22.082Z,1.85
2023-04-23T21:11:48.982Z,1.92
2023-04-23T21:14:15.828Z,1.90
2023-04-23T21:16:42.582Z,3.17
2023-04-23T21:19:09.373Z,3.78
2023-04-23T21:21:36.272Z,2.42
2023-04-23T21:24:03.136Z,4.93
2023-04-23T21:26:31.219Z,7.68
2023-04-23T21:28:58.247Z,3.22
2023-04-23T21:31:39.842Z,1.92
2023-04-23T21:34:06.708Z,3.70
2023-04-23T21:36:33.474Z,4.95
2023-04-23T21:39:00.293Z,2.72
2023-04-23T21:41:27.086Z,5.55
2023-04-23T21:43:53.906Z,2.25
2023-04-23T21:46:23.211Z,2.28
2023-04-23T21:48:53.300Z,2.20
2023-04-23T21:51:22.297Z,2.85
2023-04-23T21:53:49.535Z,3.45
2023-04-23T21:56:16.843Z,2.88
2023-04-23T21:58:44.662Z,2.83
2023-04-23T22:01:11.507Z,3.00
2023-04-23T22:03:42.319Z,3.63
2023-04-23T22:06:09.784Z,2.50
2023-04-23T22:08:40.301Z,1.77
2023-04-23T22:11:10.931Z,1.80
2023-04-23T22:13:39.151Z,1.50
2023-04-23T22:16:13.363Z,1.38
2023-04-23T22:18:47.682Z,3.03
2023-04-23T22:21:14.560Z,4.20
2023-04-23T22:23:41.331Z,0.85
2023-04-23T22:26:08.112Z,1.38
2023-04-23T22:28:34.863Z,1.02
2023-04-23T22:31:01.668Z,3.88
2023-04-23T22:33:29.292Z,1.30
2023-04-23T22:35:56.541Z,1.63
2023-04-23T22:38:23.338Z,2.22
2023-04-23T22:40:50.108Z,1.40
2023-04-23T22:43:16.878Z,1.77
2023-04-23T22:45:43.680Z,0.90
2023-04-23T22:48:10.651Z,0.90
2023-04-23T22:50:39.913Z,0.98
2023-04-23T22:53:06.820Z,3.03
2023-04-23T22:55:33.863Z,0.90
2023-04-23T22:58:00.843Z,1.25
2023-04-23T23:00:27.905Z,1.80
2023-04-23T23:02:54.778Z,2.75
2023-04-23T23:05:21.674Z,0.70
2023-04-23T23:07:48.416Z,1.40
2023-04-23T23:10:15.494Z,0.65
2023-04-23T23:12:42.246Z,1.27
2023-04-23T23:15:09.419Z,1.20
2023-04-23T23:17:36.259Z,1.90
2023-04-23T23:20:04.353Z,0.60
2023-04-23T23:22:31.136Z,2.90
2023-04-23T23:24:57.915Z,1.98
2023-04-23T23:27:24.689Z,1.13
2023-04-23T23:29:51.457Z,3.80
2023-04-23T23:32:18.372Z,0.95
2023-04-23T23:34:45.387Z,0.68
2023-04-23T23:37:12.137Z,2.78
2023-04-23T23:39:39.059Z,1.25
2023-04-23T23:42:05.906Z,2.88
2023-04-23T23:44:32.770Z,0.60
2023-04-23T23:47:00.321Z,2.28
2023-04-23T23:49:27.217Z,0.88
2023-04-23T23:51:54.038Z,0.50
2023-04-23T23:54:20.856Z,1.15
2023-04-23T23:56:47.727Z,0.32
2023-04-23T23:59:14.535Z,0.60
